createdAt,value
2018-05-02T00:00:26.469Z,93.65
2018-05-02T00:01:26.205Z,94.03
2018-05-02T00:02:26.452Z,93.65
2018-05-02T00:03:26.441Z,93.65
2018-05-02T00:04:26.426Z,93.84
2018-05-02T00:05:26.163Z,93.84
2018-05-02T00:06:26.403Z,94.03
2018-05-02T00:07:26.393Z,93.65
2018-05-02T00:08:26.381Z,93.84
2018-05-02T00:09:26.387Z,94.03
2018-05-02T00:10:26.360Z,94.13
2018-05-02T00:11:26.354Z,93.94
2018-05-02T00:12:26.350Z,93.84
2018-05-02T00:13:26.330Z,94.6
2018-05-02T00:14:26.317Z,94.79
2018-05-02T00:15:26.052Z,94.6
2018-05-02T00:16:26.294Z,94.51
2018-05-02T00:17:26.030Z,94.51
2018-05-02T00:18:26.342Z,94.42
2018-05-02T00:19:26.263Z,94.6
2018-05-02T00:20:26.259Z,93.84
2018-05-02T00:21:26.242Z,94.03
2018-05-02T00:22:26.237Z,93.84
2018-05-02T00:23:26.218Z,94.13
2018-05-02T00:24:26.207Z,94.51
2018-05-02T00:25:26.205Z,94.6
2018-05-02T00:26:26.185Z,94.32
2018-05-02T00:27:26.174Z,94.32
2018-05-02T00:28:26.162Z,94.32
2018-05-02T00:29:25.899Z,94.32
2018-05-02T00:30:26.139Z,94.42
2018-05-02T00:31:26.144Z,94.7
2018-05-02T00:32:26.128Z,94.7
2018-05-02T00:33:26.108Z,94.51
2018-05-02T00:34:25.847Z,94.51
2018-05-02T00:35:25.833Z,94.79
2018-05-02T00:36:26.074Z,94.6
2018-05-02T00:37:26.069Z,94.51
2018-05-02T00:38:25.799Z,94.13
2018-05-02T00:39:26.047Z,94.79
2018-05-02T00:40:26.030Z,94.42
2018-05-02T00:41:26.018Z,94.42
2018-05-02T00:42:26.013Z,94.13
2018-05-02T00:43:26.064Z,94.51
2018-05-02T00:44:25.991Z,94.42
2018-05-02T00:45:25.978Z,94.51
2018-05-02T00:46:25.963Z,94.23
2018-05-02T00:47:25.954Z,94.7
2018-05-02T00:48:25.944Z,94.79
2018-05-02T00:49:25.935Z,95.36
2018-05-02T00:50:25.931Z,94.98
2018-05-02T00:51:25.908Z,94.89
2018-05-02T00:52:25.643Z,95.27
2018-05-02T00:53:25.885Z,95.07
2018-05-02T00:54:25.875Z,94.89
2018-05-02T00:55:25.864Z,95.07
2018-05-02T00:56:25.859Z,95.07
2018-05-02T00:57:25.841Z,94.98
2018-05-02T00:58:25.831Z,94.89
2018-05-02T00:59:25.824Z,95.27
2018-05-02T01:00:25.830Z,94.89
2018-05-02T01:01:25.797Z,94.79
2018-05-02T01:02:25.533Z,94.98
2018-05-02T01:03:25.779Z,95.55
2018-05-02T01:04:25.510Z,95.17
2018-05-02T01:05:25.767Z,95.07
2018-05-02T01:06:25.744Z,95.65
2018-05-02T01:07:25.730Z,95.74
2018-05-02T01:08:25.720Z,95.93
2018-05-02T01:09:27.121Z,95.93
2018-05-02T01:10:25.709Z,95.84
2018-05-02T01:11:25.684Z,95.74
2018-05-02T01:12:25.675Z,95.36
2018-05-02T01:13:25.663Z,95.74
2018-05-02T01:14:25.650Z,95.93
2018-05-02T01:15:25.387Z,95.74
2018-05-02T01:16:25.376Z,95.65
2018-05-02T01:17:25.374Z,95.93
2018-05-02T01:18:25.605Z,95.93
2018-05-02T01:19:25.593Z,95.84
2018-05-02T01:20:25.584Z,95.46
2018-05-02T01:21:25.318Z,95.84
2018-05-02T01:22:25.560Z,95.74
2018-05-02T01:23:25.550Z,95.55
2018-05-02T01:24:25.540Z,96.03
2018-05-02T01:25:25.527Z,95.65
2018-05-02T01:26:25.515Z,96.12
2018-05-02T01:27:25.509Z,95.74
2018-05-02T01:28:25.505Z,95.55
2018-05-02T01:29:25.481Z,95.65
2018-05-02T01:30:25.472Z,95.5
2018-05-02T01:31:25.468Z,95.5
2018-05-02T01:32:25.451Z,95.98
2018-05-02T01:33:25.447Z,96.03
2018-05-02T01:34:25.435Z,96.22
2018-05-02T01:35:25.415Z,96.22
2018-05-02T01:36:25.403Z,96.17
2018-05-02T01:37:25.399Z,95.88
2018-05-02T01:38:25.136Z,96.36
2018-05-02T01:39:25.376Z,96.92
2018-05-02T01:40:25.105Z,96.08
2018-05-02T01:41:25.349Z,96.55
2018-05-02T01:42:25.335Z,96.73
2018-05-02T01:43:25.323Z,96.92
2018-05-02T01:44:25.322Z,96.83
2018-05-02T01:45:25.302Z,96.55
2018-05-02T01:46:25.291Z,96.36
2018-05-02T01:47:25.277Z,96.83
2018-05-02T01:48:25.266Z,96.45
2018-05-02T01:49:25.267Z,96.92
2018-05-02T01:50:25.244Z,96.92
2018-05-02T01:51:25.248Z,96.92
2018-05-02T01:52:25.230Z,96.73
2018-05-02T01:53:25.210Z,96.73
2018-05-02T01:54:25.202Z,96.73
2018-05-02T01:55:25.186Z,96.55
2018-05-02T01:56:25.176Z,97.02
2018-05-02T01:57:25.165Z,97.12
2018-05-02T01:58:24.906Z,97.02
2018-05-02T01:59:24.888Z,96.73
2018-05-02T02:00:25.134Z,96.55
2018-05-02T02:01:25.121Z,96.83
2018-05-02T02:02:25.106Z,96.92
2018-05-02T02:03:25.094Z,96.92
2018-05-02T02:04:24.832Z,96.73
2018-05-02T02:05:25.073Z,96.73
2018-05-02T02:06:25.065Z,96.92
2018-05-02T02:07:25.049Z,96.83
2018-05-02T02:08:25.041Z,96.92
2018-05-02T02:09:25.030Z,97.5
2018-05-02T02:10:25.015Z,97.21
2018-05-02T02:11:25.003Z,97.88
2018-05-02T02:12:24.997Z,97.21
2018-05-02T02:13:24.986Z,97.02
2018-05-02T02:14:24.968Z,96.83
2018-05-02T02:15:24.958Z,96.92
2018-05-02T02:16:24.956Z,96.83
2018-05-02T02:17:24.682Z,96.92
2018-05-02T02:18:24.672Z,96.83
2018-05-02T02:19:24.912Z,97.02
2018-05-02T02:20:24.901Z,96.92
2018-05-02T02:21:24.892Z,96.92
2018-05-02T02:22:24.879Z,97.02
2018-05-02T02:23:24.864Z,96.92
2018-05-02T02:24:24.852Z,96.92
2018-05-02T02:25:24.847Z,96.92
2018-05-02T02:26:24.831Z,97.02
2018-05-02T02:27:24.819Z,97.21
2018-05-02T02:28:24.808Z,96.92
2018-05-02T02:29:24.797Z,97.31
2018-05-02T02:30:24.532Z,96.92
2018-05-02T02:31:24.774Z,96.64
2018-05-02T02:32:24.765Z,96.83
2018-05-02T02:33:24.750Z,97.12
2018-05-02T02:34:24.486Z,97.02
2018-05-02T02:35:24.731Z,97.02
2018-05-02T02:36:24.717Z,97.31
2018-05-02T02:37:24.706Z,96.92
2018-05-02T02:38:24.693Z,96.92
2018-05-02T02:39:24.685Z,97.12
2018-05-02T02:40:24.669Z,96.83
2018-05-02T02:41:24.662Z,96.92
2018-05-02T02:42:24.647Z,96.92
2018-05-02T02:43:24.381Z,96.83
2018-05-02T02:44:24.697Z,97.12
2018-05-02T02:45:24.621Z,97.12
2018-05-02T02:46:24.606Z,96.92
2018-05-02T02:47:24.590Z,96.83
2018-05-02T02:48:24.580Z,97.02
2018-05-02T02:49:24.610Z,96.92
2018-05-02T02:50:24.554Z,96.83
2018-05-02T02:51:24.288Z,97.4
2018-05-02T02:52:24.529Z,97.78
2018-05-02T02:53:24.527Z,97.59
2018-05-02T02:54:24.506Z,97.31
2018-05-02T02:55:24.650Z,97.31
2018-05-02T02:56:24.483Z,97.4
2018-05-02T02:57:24.481Z,97.31
2018-05-02T02:58:24.481Z,97.31
2018-05-02T02:59:24.448Z,97.31
2018-05-02T03:00:24.444Z,97.88
2018-05-02T03:01:24.427Z,97.88
2018-05-02T03:02:24.427Z,97.88
2018-05-02T03:03:24.414Z,97.97
2018-05-02T03:04:24.399Z,98.07
2018-05-02T03:05:24.378Z,98.35
2018-05-02T03:06:24.371Z,98.25
2018-05-02T03:07:24.365Z,98.16
2018-05-02T03:08:24.343Z,98.16
2018-05-02T03:09:24.337Z,97.88
2018-05-02T03:10:24.321Z,98.07
2018-05-02T03:11:24.314Z,98.54
2018-05-02T03:12:24.296Z,98.63
2018-05-02T03:13:24.284Z,98.82
2018-05-02T03:14:24.018Z,98.54
2018-05-02T03:15:24.263Z,98.82
2018-05-02T03:16:24.255Z,98.54
2018-05-02T03:17:24.239Z,98.63
2018-05-02T03:18:24.224Z,98.44
2018-05-02T03:19:24.226Z,98.44
2018-05-02T03:20:24.202Z,98.73
2018-05-02T03:21:23.937Z,98.44
2018-05-02T03:22:24.176Z,99.11
2018-05-02T03:23:24.166Z,98.92
2018-05-02T03:24:24.155Z,98.73
2018-05-02T03:25:24.140Z,98.82
2018-05-02T03:26:24.129Z,98.92
2018-05-02T03:27:24.119Z,99.2
2018-05-02T03:28:24.118Z,99.2
2018-05-02T03:29:24.097Z,99.58
2018-05-02T03:30:24.085Z,99.2
2018-05-02T03:31:24.077Z,99.39
2018-05-02T03:32:24.062Z,99.49
2018-05-02T03:33:24.050Z,99.2
2018-05-02T03:34:24.039Z,99.11
2018-05-02T03:35:24.026Z,99.39
2018-05-02T03:36:24.014Z,99.2
2018-05-02T03:37:23.748Z,99.01
2018-05-02T03:38:23.990Z,99.2
2018-05-02T03:39:23.983Z,99.49
2018-05-02T03:40:23.971Z,99.3
2018-05-02T03:41:23.955Z,99.68
2018-05-02T03:42:23.944Z,99.39
2018-05-02T03:43:23.933Z,99.2
2018-05-02T03:44:23.923Z,99.39
2018-05-02T03:45:23.910Z,99.39
2018-05-02T03:46:23.643Z,99.58
2018-05-02T03:47:23.629Z,99.58
2018-05-02T03:48:23.618Z,99.39
2018-05-02T03:49:23.857Z,99.58
2018-05-02T03:50:23.595Z,99.39
2018-05-02T03:51:23.583Z,99.39
2018-05-02T03:52:23.822Z,99.39
2018-05-02T03:53:23.812Z,99.39
2018-05-02T03:54:23.800Z,99.63
2018-05-02T03:55:23.794Z,99.54
2018-05-02T03:56:23.777Z,99.58
2018-05-02T03:57:23.775Z,99.54
2018-05-02T03:58:23.753Z,99.73
2018-05-02T03:59:23.744Z,99.63
2018-05-02T04:00:23.739Z,99.63
2018-05-02T04:01:23.721Z,99.44
2018-05-02T04:02:23.713Z,99.44
2018-05-02T04:03:23.703Z,99.82
2018-05-02T04:04:23.687Z,99.26
2018-05-02T04:05:23.679Z,99.16
2018-05-02T04:06:23.664Z,99.63
2018-05-02T04:07:23.654Z,99.26
2018-05-02T04:08:23.642Z,99.44
2018-05-02T04:09:23.631Z,98.83
2018-05-02T04:10:23.620Z,99.11
2018-05-02T04:11:23.628Z,99.11
2018-05-02T04:12:23.608Z,99.11
2018-05-02T04:13:23.335Z,98.83
2018-05-02T04:14:23.580Z,98.73
2018-05-02T04:15:23.569Z,98.88
2018-05-02T04:16:23.562Z,98.97
2018-05-02T04:17:23.562Z,98.88
2018-05-02T04:18:23.536Z,99.16
2018-05-02T04:19:23.537Z,99.07
2018-05-02T04:20:23.513Z,98.55
2018-05-02T04:21:23.509Z,98.74
2018-05-02T04:22:23.243Z,97.83
2018-05-02T04:23:23.239Z,97.36
2018-05-02T04:24:23.475Z,97.36
2018-05-02T04:25:23.466Z,96.79
2018-05-02T04:26:23.458Z,96.08
2018-05-02T04:27:23.449Z,96.17
2018-05-02T04:28:23.439Z,95.6
2018-05-02T04:29:23.437Z,95.12
2018-05-02T04:30:23.171Z,94.6
2018-05-02T04:31:23.416Z,94.32
2018-05-02T04:32:23.405Z,93.94
2018-05-02T04:33:23.398Z,93.65
2018-05-02T04:34:23.392Z,93.18
2018-05-02T04:35:23.381Z,92.99
2018-05-02T04:36:23.372Z,92.74
2018-05-02T04:37:23.366Z,92.46
2018-05-02T04:38:23.357Z,91.89
2018-05-02T04:39:23.351Z,91.7
2018-05-02T04:40:23.341Z,91.13
2018-05-02T04:41:23.333Z,90.84
2018-05-02T04:42:23.325Z,90.75
2018-05-02T04:43:23.068Z,90.75
2018-05-02T04:44:23.317Z,90.17
2018-05-02T04:45:23.306Z,90.27
2018-05-02T04:46:23.304Z,89.89
2018-05-02T04:47:23.291Z,89.41
2018-05-02T04:48:23.286Z,89.13
2018-05-02T04:49:23.274Z,89.46
2018-05-02T04:50:23.272Z,88.65
2018-05-02T04:51:23.260Z,88.84
2018-05-02T04:52:23.254Z,88.75
2018-05-02T04:53:22.992Z,88.56
2018-05-02T04:54:23.245Z,87.74
2018-05-02T04:55:23.306Z,87.74
2018-05-02T04:56:23.226Z,87.84
2018-05-02T04:57:23.216Z,87.36
2018-05-02T04:58:23.211Z,87.36
2018-05-02T04:59:23.256Z,87.36
2018-05-02T05:00:23.193Z,86.79
2018-05-02T05:01:23.185Z,86.69
2018-05-02T05:02:23.179Z,86.41
2018-05-02T05:03:23.178Z,85.64
2018-05-02T05:04:23.163Z,85.64
2018-05-02T05:05:23.155Z,85.93
2018-05-02T05:06:23.150Z,85.64
2018-05-02T05:07:23.141Z,85.27
2018-05-02T05:08:23.133Z,85.5
2018-05-02T05:09:23.127Z,84.83
2018-05-02T05:10:23.122Z,85.12
2018-05-02T05:11:23.118Z,84.45
2018-05-02T05:12:23.223Z,83.78
2018-05-02T05:13:23.100Z,83.5
2018-05-02T05:14:23.094Z,83.59
2018-05-02T05:15:23.085Z,83.21
2018-05-02T05:16:22.826Z,82.54
2018-05-02T05:17:23.079Z,82.17
2018-05-02T05:18:23.067Z,81.97
2018-05-02T05:19:23.063Z,81.73
2018-05-02T05:20:22.800Z,80.96
2018-05-02T05:21:23.048Z,80.05
2018-05-02T05:22:23.052Z,79.57
2018-05-02T05:23:23.036Z,78.75
2018-05-02T05:24:23.030Z,77.55
2018-05-02T05:25:23.026Z,76.79
2018-05-02T05:26:23.028Z,76.64
2018-05-02T05:27:23.023Z,75.39
2018-05-02T05:28:23.020Z,74.48
2018-05-02T05:29:23.007Z,74.28
2018-05-02T05:30:22.750Z,73.23
2018-05-02T05:31:22.998Z,72.31
2018-05-02T05:32:23.001Z,72.02
2018-05-02T05:33:22.989Z,71.16
2018-05-02T05:34:22.994Z,70.05
2018-05-02T05:35:22.830Z,69.86
2018-05-02T05:36:22.983Z,68.8
2018-05-02T05:37:22.976Z,68.13
2018-05-02T05:38:22.972Z,67.56
2018-05-02T05:39:22.971Z,66.99
2018-05-02T05:40:22.966Z,66.13
2018-05-02T05:41:22.961Z,64.98
2018-05-02T05:42:22.959Z,65.17
2018-05-02T05:43:23.007Z,65.08
2018-05-02T05:44:22.952Z,65.08
2018-05-02T05:45:22.949Z,65.08
2018-05-02T05:46:22.692Z,65.17
2018-05-02T05:47:22.939Z,64.88
2018-05-02T05:48:22.935Z,64.22
2018-05-02T05:49:22.939Z,64.02
2018-05-02T05:50:22.944Z,64.25
2018-05-02T05:51:22.925Z,63.86
2018-05-02T05:52:22.920Z,63.1
2018-05-02T05:53:22.927Z,62.81
2018-05-02T05:54:23.067Z,61.94
2018-05-02T05:55:22.919Z,61.47
2018-05-02T05:56:22.907Z,60.99
2018-05-02T05:57:22.902Z,60.41
2018-05-02T05:58:22.915Z,60.8
2018-05-02T05:59:22.895Z,61.02
2018-05-02T06:00:22.893Z,59.77
2018-05-02T06:01:22.888Z,59.97
2018-05-02T06:02:22.888Z,60.35
2018-05-02T06:03:22.881Z,59.77
2018-05-02T06:04:22.637Z,59.2
2018-05-02T06:05:22.875Z,58.46
2018-05-02T06:06:22.871Z,58.65
2018-05-02T06:07:22.871Z,57.7
2018-05-02T06:08:22.889Z,57.6
2018-05-02T06:09:22.610Z,57.21
2018-05-02T06:10:22.861Z,56.96
2018-05-02T06:11:22.856Z,56.86
2018-05-02T06:12:22.856Z,56
2018-05-02T06:13:22.869Z,55.52
2018-05-02T06:14:22.599Z,55.33
2018-05-02T06:15:22.594Z,54.88
2018-05-02T06:16:22.846Z,54.39
2018-05-02T06:17:22.589Z,54.68
2018-05-02T06:18:22.591Z,53.34
2018-05-02T06:19:22.844Z,53.17
2018-05-02T06:20:22.849Z,52.31
2018-05-02T06:21:22.832Z,51.16
2018-05-02T06:22:22.841Z,51.16
2018-05-02T06:23:22.841Z,51.73
2018-05-02T06:24:22.825Z,51.16
2018-05-02T06:25:22.826Z,50.87
2018-05-02T06:26:22.577Z,50.49
2018-05-02T06:27:22.826Z,49.72
2018-05-02T06:28:22.832Z,49.24
2018-05-02T06:29:22.597Z,49.62
2018-05-02T06:30:22.817Z,48.47
2018-05-02T06:31:22.833Z,47.51
2018-05-02T06:32:22.815Z,47.8
2018-05-02T06:33:22.867Z,47.99
2018-05-02T06:34:22.556Z,47.99
2018-05-02T06:35:22.834Z,48.18
2018-05-02T06:36:22.813Z,47.8
2018-05-02T06:37:22.812Z,46.67
2018-05-02T06:38:22.815Z,46.58
2018-05-02T06:39:22.806Z,46.67
2018-05-02T06:40:22.848Z,46.86
2018-05-02T06:41:22.807Z,47.05
2018-05-02T06:42:22.553Z,46.86
2018-05-02T06:43:22.845Z,46.79
2018-05-02T06:44:22.827Z,46.59
2018-05-02T06:45:22.803Z,44.31
2018-05-02T06:46:22.805Z,42.39
2018-05-02T06:47:22.828Z,42.68
2018-05-02T06:48:22.553Z,42.77
2018-05-02T06:49:22.551Z,42.85
2018-05-02T06:50:22.855Z,43.33
2018-05-02T06:51:22.869Z,42.47
2018-05-02T06:52:22.574Z,43.33
2018-05-02T06:53:22.825Z,43.16
2018-05-02T06:54:22.898Z,42.58
2018-05-02T06:55:22.802Z,42.77
2018-05-02T06:56:22.804Z,42.6
2018-05-02T06:57:22.824Z,42.32
2018-05-02T06:58:22.812Z,42.12
2018-05-02T06:59:22.550Z,42.22
2018-05-02T07:00:22.811Z,41.86
2018-05-02T07:01:22.807Z,41.38
2018-05-02T07:02:22.810Z,41.08
2018-05-02T07:03:22.813Z,39.76
2018-05-02T07:04:22.820Z,38.22
2018-05-02T07:05:22.814Z,38.02
2018-05-02T07:06:22.816Z,38.1
2018-05-02T07:07:22.817Z,38.87
2018-05-02T07:08:22.816Z,39.16
2018-05-02T07:09:22.824Z,39.83
2018-05-02T07:10:22.832Z,38.59
2018-05-02T07:11:22.829Z,37.64
2018-05-02T07:12:22.842Z,37.93
2018-05-02T07:13:22.831Z,38.2
2018-05-02T07:14:22.832Z,38.68
2018-05-02T07:15:22.582Z,38.2
2018-05-02T07:16:22.840Z,38.01
2018-05-02T07:17:22.854Z,38.68
2018-05-02T07:18:22.867Z,38.68
2018-05-02T07:19:22.864Z,38.78
2018-05-02T07:20:22.853Z,39.28
2018-05-02T07:21:22.873Z,38.6
2018-05-02T07:22:22.863Z,38.79
2018-05-02T07:23:22.872Z,38.72
2018-05-02T07:24:22.860Z,38.43
2018-05-02T07:25:22.609Z,38.14
2018-05-02T07:26:22.878Z,37.76
2018-05-02T07:27:22.872Z,38.33
2018-05-02T07:28:22.876Z,38.14
2018-05-02T07:29:22.884Z,38.53
2018-05-02T07:30:22.907Z,38.72
2018-05-02T07:31:22.879Z,38.53
2018-05-02T07:32:22.957Z,38.04
2018-05-02T07:33:22.884Z,38.02
2018-05-02T07:34:22.896Z,38.31
2018-05-02T07:35:22.966Z,38.51
2018-05-02T07:36:22.891Z,38.89
2018-05-02T07:37:22.898Z,38.51
2018-05-02T07:38:22.643Z,38.33
2018-05-02T07:39:22.899Z,37.95
2018-05-02T07:40:23.104Z,38.24
2018-05-02T07:41:22.938Z,37.87
2018-05-02T07:42:22.663Z,37.58
2018-05-02T07:43:22.936Z,37.12
2018-05-02T07:44:22.915Z,37.12
2018-05-02T07:45:22.671Z,37.13
2018-05-02T07:46:22.932Z,36.46
2018-05-02T07:47:22.946Z,36.27
2018-05-02T07:48:22.934Z,36.38
2018-05-02T07:49:22.961Z,36.75
2018-05-02T07:50:23.017Z,35.22
2018-05-02T07:51:22.951Z,35.22
2018-05-02T07:52:22.988Z,34.64
2018-05-02T07:53:22.968Z,34.38
2018-05-02T07:54:22.988Z,34.08
2018-05-02T07:55:23.012Z,34.38
2018-05-02T07:56:23.004Z,34.97
2018-05-02T07:57:22.987Z,34.2
2018-05-02T07:58:22.993Z,32.94
2018-05-02T07:59:23.011Z,33.15
2018-05-02T08:00:22.997Z,32.57
2018-05-02T08:01:23.009Z,32.47
2018-05-02T08:02:23.016Z,32.57
2018-05-02T08:03:23.055Z,32.57
2018-05-02T08:04:23.037Z,32.09
2018-05-02T08:05:23.039Z,32.28
2018-05-02T08:06:23.039Z,32.47
2018-05-02T08:07:23.090Z,32.96
2018-05-02T08:08:23.094Z,32.94
2018-05-02T08:09:23.063Z,32.46
2018-05-02T08:10:23.062Z,32.64
2018-05-02T08:11:23.303Z,33.5
2018-05-02T08:12:23.099Z,34.16
2018-05-02T08:13:23.121Z,33.97
2018-05-02T08:14:23.121Z,34.55
2018-05-02T08:15:23.137Z,34.36
2018-05-02T08:16:23.233Z,34.63
2018-05-02T08:17:22.853Z,34.63
2018-05-02T08:18:22.848Z,35.38
2018-05-02T08:19:23.164Z,35.58
2018-05-02T08:20:22.853Z,35.86
2018-05-02T08:21:23.107Z,36.13
2018-05-02T08:22:23.135Z,36.33
2018-05-02T08:23:23.116Z,36.52
2018-05-02T08:24:23.122Z,36.89
2018-05-02T08:25:23.121Z,36.6
2018-05-02T08:26:23.130Z,36.89
2018-05-02T08:27:23.121Z,36.99
2018-05-02T08:28:23.128Z,37.08
2018-05-02T08:29:22.880Z,37.08
2018-05-02T08:30:23.201Z,36.69
2018-05-02T08:31:23.126Z,35.81
2018-05-02T08:32:23.135Z,36.87
2018-05-02T08:33:23.134Z,36.97
2018-05-02T08:34:23.133Z,36.87
2018-05-02T08:35:23.136Z,36.77
2018-05-02T08:36:23.129Z,36.77
2018-05-02T08:37:23.151Z,36.87
2018-05-02T08:38:23.129Z,36.58
2018-05-02T08:39:23.168Z,36.68
2018-05-02T08:40:23.129Z,36.68
2018-05-02T08:41:23.132Z,36.37
2018-05-02T08:42:23.138Z,35.99
2018-05-02T08:43:23.146Z,36.66
2018-05-02T08:44:23.147Z,36.95
2018-05-02T08:45:22.876Z,37.02
2018-05-02T08:46:23.201Z,37.12
2018-05-02T08:47:23.140Z,37.32
2018-05-02T08:48:23.126Z,37.12
2018-05-02T08:49:23.125Z,36.64
2018-05-02T08:50:23.129Z,37.02
2018-05-02T08:51:23.147Z,37.1
2018-05-02T08:52:23.134Z,37.59
2018-05-02T08:53:22.871Z,37.59
2018-05-02T08:54:23.135Z,37.77
2018-05-02T08:55:23.136Z,38.62
2018-05-02T08:56:23.130Z,38.81
2018-05-02T08:57:23.177Z,39.18
2018-05-02T08:58:23.127Z,39.56
2018-05-02T08:59:23.144Z,39.66
2018-05-02T09:00:23.131Z,39.85
2018-05-02T09:01:22.886Z,39.85
2018-05-02T09:02:23.112Z,40.23
2018-05-02T09:03:23.121Z,40.05
2018-05-02T09:04:23.106Z,40.05
2018-05-02T09:05:23.117Z,40.05
2018-05-02T09:06:23.113Z,40.14
2018-05-02T09:07:23.100Z,39.85
2018-05-02T09:08:23.104Z,40.05
2018-05-02T09:09:22.869Z,40.14
2018-05-02T09:10:23.105Z,39.95
2018-05-02T09:11:22.850Z,40.52
2018-05-02T09:12:23.099Z,40.52
2018-05-02T09:13:23.097Z,39.97
2018-05-02T09:14:22.844Z,40.25
2018-05-02T09:15:23.089Z,39.7
2018-05-02T09:16:23.088Z,39.61
2018-05-02T09:17:23.081Z,39.12
2018-05-02T09:18:23.092Z,38.93
2018-05-02T09:19:23.132Z,38.74
2018-05-02T09:20:22.828Z,39.03
2018-05-02T09:21:23.076Z,38.64
2018-05-02T09:22:22.821Z,38.85
2018-05-02T09:23:23.072Z,38.18
2018-05-02T09:24:23.080Z,37.97
2018-05-02T09:25:23.070Z,38.37
2018-05-02T09:26:23.069Z,38.54
2018-05-02T09:27:23.065Z,38.28
2018-05-02T09:28:23.066Z,37.6
2018-05-02T09:29:23.071Z,37.79
2018-05-02T09:30:23.081Z,37.79
2018-05-02T09:31:22.836Z,38.28
2018-05-02T09:32:22.824Z,38.37
2018-05-02T09:33:23.068Z,38.49
2018-05-02T09:34:23.078Z,38.01
2018-05-02T09:35:22.804Z,38.1
2018-05-02T09:36:23.065Z,38.39
2018-05-02T09:37:23.067Z,38.1
2018-05-02T09:38:23.067Z,37.62
2018-05-02T09:39:23.069Z,37.34
2018-05-02T09:40:23.107Z,37.62
2018-05-02T09:41:23.067Z,37.89
2018-05-02T09:42:23.053Z,37.79
2018-05-02T09:43:22.807Z,37.89
2018-05-02T09:44:23.043Z,37.89
2018-05-02T09:45:23.062Z,38.35
2018-05-02T09:46:23.081Z,38.84
2018-05-02T09:47:23.044Z,38.64
2018-05-02T09:48:23.060Z,39.31
2018-05-02T09:49:23.050Z,39.97
2018-05-02T09:50:22.781Z,39.97
2018-05-02T09:51:23.052Z,40.25
2018-05-02T09:52:23.052Z,40.64
2018-05-02T09:53:23.037Z,40.64
2018-05-02T09:54:23.029Z,40.91
2018-05-02T09:55:23.052Z,40.55
2018-05-02T09:56:23.027Z,40.64
2018-05-02T09:57:23.019Z,40.81
2018-05-02T09:58:23.148Z,41.1
2018-05-02T09:59:23.016Z,41.2
2018-05-02T10:00:23.016Z,41.66
2018-05-02T10:01:23.016Z,41.85
2018-05-02T10:02:23.016Z,42.23
2018-05-02T10:03:23.020Z,42.71
2018-05-02T10:04:22.829Z,42.43
2018-05-02T10:05:23.018Z,42.81
2018-05-02T10:06:23.015Z,43.65
2018-05-02T10:07:23.038Z,43.74
2018-05-02T10:08:23.002Z,44.03
2018-05-02T10:09:22.992Z,44.42
2018-05-02T10:10:23.004Z,45
2018-05-02T10:11:23.019Z,45.28
2018-05-02T10:12:23.071Z,45.37
2018-05-02T10:13:22.977Z,45.37
2018-05-02T10:14:22.974Z,45.67
2018-05-02T10:15:22.970Z,45.95
2018-05-02T10:16:23.011Z,46.14
2018-05-02T10:17:22.990Z,45.93
2018-05-02T10:18:22.977Z,46.6
2018-05-02T10:19:22.971Z,46.31
2018-05-02T10:20:22.712Z,46.03
2018-05-02T10:21:22.703Z,46.22
2018-05-02T10:22:22.983Z,45.83
2018-05-02T10:23:22.958Z,46.12
2018-05-02T10:24:22.941Z,46.5
2018-05-02T10:25:22.942Z,46.41
2018-05-02T10:26:23.077Z,46.6
2018-05-02T10:27:22.933Z,46.24
2018-05-02T10:28:22.936Z,46.41
2018-05-02T10:29:22.721Z,46.24
2018-05-02T10:30:22.693Z,46.24
2018-05-02T10:31:22.953Z,46.53
2018-05-02T10:32:22.663Z,45.95
2018-05-02T10:33:22.968Z,45.86
2018-05-02T10:34:22.920Z,45.95
2018-05-02T10:35:22.912Z,46.05
2018-05-02T10:36:22.905Z,46.14
2018-05-02T10:37:22.899Z,46.34
2018-05-02T10:38:22.903Z,46.24
2018-05-02T10:39:22.912Z,46.14
2018-05-02T10:40:22.888Z,45.95
2018-05-02T10:41:22.885Z,45.95
2018-05-02T10:42:22.888Z,46.34
2018-05-02T10:43:22.884Z,46.62
2018-05-02T10:44:22.892Z,46.14
2018-05-02T10:45:22.880Z,46.34
2018-05-02T10:46:22.621Z,46.62
2018-05-02T10:47:22.876Z,46.43
2018-05-02T10:48:22.872Z,46.24
2018-05-02T10:49:22.862Z,46.43
2018-05-02T10:50:22.983Z,46.34
2018-05-02T10:51:22.868Z,47.1
2018-05-02T10:52:22.860Z,46.94
2018-05-02T10:53:22.847Z,47.03
2018-05-02T10:54:22.857Z,47.13
2018-05-02T10:55:22.868Z,47.32
2018-05-02T10:56:23.301Z,47.41
2018-05-02T10:57:22.849Z,47.32
2018-05-02T10:58:22.602Z,47.13
2018-05-02T10:59:22.847Z,47.01
2018-05-02T11:00:22.826Z,47.49
2018-05-02T11:01:22.824Z,48.16
2018-05-02T11:02:22.859Z,49.31
2018-05-02T11:03:22.817Z,49.38
2018-05-02T11:04:22.562Z,49.96
2018-05-02T11:05:22.819Z,49.57
2018-05-02T11:06:23.034Z,50.24
2018-05-02T11:07:22.807Z,49.96
2018-05-02T11:08:22.855Z,50.34
2018-05-02T11:09:22.799Z,50.92
2018-05-02T11:10:22.793Z,51.59
2018-05-02T11:11:22.803Z,51.87
2018-05-02T11:12:22.789Z,51.97
2018-05-02T11:13:22.819Z,52.07
2018-05-02T11:14:22.830Z,51.87
2018-05-02T11:15:22.793Z,51.87
2018-05-02T11:16:22.824Z,52.64
2018-05-02T11:17:23.049Z,52.93
2018-05-02T11:18:22.782Z,52.91
2018-05-02T11:19:22.814Z,53.22
2018-05-02T11:20:22.808Z,52.81
2018-05-02T11:21:22.757Z,53.38
2018-05-02T11:22:22.751Z,54.24
2018-05-02T11:23:22.762Z,53.77
2018-05-02T11:24:22.748Z,53.86
2018-05-02T11:25:22.754Z,53.77
2018-05-02T11:26:22.757Z,54.05
2018-05-02T11:27:22.766Z,53.83
2018-05-02T11:28:22.793Z,54.15
2018-05-02T11:29:22.738Z,54.44
2018-05-02T11:30:22.731Z,54.72
2018-05-02T11:31:22.503Z,55.4
2018-05-02T11:32:22.743Z,55.4
2018-05-02T11:33:22.461Z,54.24
2018-05-02T11:34:22.704Z,54.34
2018-05-02T11:35:22.727Z,54.53
2018-05-02T11:36:22.441Z,55.21
2018-05-02T11:37:22.713Z,55.11
2018-05-02T11:38:22.458Z,55.01
2018-05-02T11:39:22.712Z,55.21
2018-05-02T11:40:22.681Z,54.82
2018-05-02T11:41:22.429Z,54.63
2018-05-02T11:42:22.687Z,54.34
2018-05-02T11:43:22.672Z,54.34
2018-05-02T11:44:22.433Z,54.63
2018-05-02T11:45:22.703Z,55.21
2018-05-02T11:46:22.847Z,55.3
2018-05-02T11:47:22.669Z,55.58
2018-05-02T11:48:22.681Z,55.46
2018-05-02T11:49:22.403Z,55.58
2018-05-02T11:50:22.672Z,55.11
2018-05-02T11:51:22.707Z,55.08
2018-05-02T11:52:22.684Z,55.56
2018-05-02T11:53:22.424Z,55.56
2018-05-02T11:54:22.398Z,55.46
2018-05-02T11:55:22.384Z,55.65
2018-05-02T11:56:22.658Z,55.75
2018-05-02T11:57:22.666Z,55.56
2018-05-02T11:58:22.700Z,55.65
2018-05-02T11:59:22.647Z,55.94
2018-05-02T12:00:22.658Z,55.94
2018-05-02T12:01:22.660Z,56.04
2018-05-02T12:02:22.632Z,55.85
2018-05-02T12:03:23.545Z,55.75
2018-05-02T12:04:22.585Z,55.56
2018-05-02T12:05:22.610Z,55.46
2018-05-02T12:06:22.610Z,55.65
2018-05-02T12:07:22.603Z,55.56
2018-05-02T12:08:22.597Z,55.75
2018-05-02T12:09:22.557Z,56.04
2018-05-02T12:10:22.565Z,55.56
2018-05-02T12:11:22.559Z,55.18
2018-05-02T12:12:22.550Z,55.65
2018-05-02T12:13:22.541Z,55.46
2018-05-02T12:14:22.535Z,55.85
2018-05-02T12:15:22.531Z,56.23
2018-05-02T12:16:22.571Z,55.75
2018-05-02T12:17:22.522Z,55.65
2018-05-02T12:18:22.525Z,55.56
2018-05-02T12:19:22.521Z,55.08
2018-05-02T12:20:22.520Z,55.56
2018-05-02T12:21:22.505Z,55.68
2018-05-02T12:22:22.511Z,55.58
2018-05-02T12:23:22.245Z,55.58
2018-05-02T12:24:22.511Z,55.58
2018-05-02T12:25:22.491Z,54.53
2018-05-02T12:26:22.497Z,54.24
2018-05-02T12:27:22.231Z,54.15
2018-05-02T12:28:22.509Z,53.41
2018-05-02T12:29:22.505Z,52.93
2018-05-02T12:30:22.234Z,53.03
2018-05-02T12:31:22.213Z,52.81
2018-05-02T12:32:22.498Z,53.12
2018-05-02T12:33:22.208Z,52.26
2018-05-02T12:34:22.459Z,52.45
2018-05-02T12:35:22.551Z,53
2018-05-02T12:36:22.239Z,52.71
2018-05-02T12:37:22.473Z,52.42
2018-05-02T12:38:22.440Z,51.97
2018-05-02T12:39:22.442Z,52.07
2018-05-02T12:40:22.435Z,51.97
2018-05-02T12:41:22.442Z,51.1
2018-05-02T12:42:22.427Z,51.23
2018-05-02T12:43:22.442Z,50.53
2018-05-02T12:44:22.452Z,50.24
2018-05-02T12:45:22.163Z,50.24
2018-05-02T12:46:22.429Z,50.43
2018-05-02T12:47:22.172Z,50.37
2018-05-02T12:48:22.414Z,50.27
2018-05-02T12:49:22.412Z,49.88
2018-05-02T12:50:22.402Z,49.41
2018-05-02T12:51:22.416Z,49.21
2018-05-02T12:52:22.143Z,49.24
2018-05-02T12:53:22.141Z,48.95
2018-05-02T12:54:22.411Z,48.47